Terminal Aerodrome Forecast
Issued by NWS

Home | Current Version | Previous Version | Graphics & Text | Print | Product List | Glossary On
Versions: 1 2 3 4 5 6 7 8 9 10 11 12 13 14 15 16 17 18
000
FTUS43 KDLH 192325
TAFBRD
TAF
KBRD 192325Z 2000/2024 18008KT P6SM SKC
     FM200200 18007KT P6SM FEW250 WS020/21037KT
     FM201100 17006KT P6SM FEW250
     FM201600 18015G24KT P6SM FEW250=

USA.gov is the U.S. government's official web portal to all federal, state and local government web resources and services.